Terminal Aerodrome Forecast
Issued by NWS South Bend, IN

Home | Current Version | Previous Version | Text Only | Print | Product List | Glossary On
Versions: 1 2 3 4 5 6 7 8 9 10 11 12 13 14 15
000
FTUS43 KIWX 020500
TAFSBN
TAF
KSBN 020530Z 0206/0306 18015KT P6SM SKC
     FM021000 17015G25KT P6SM VCSH BKN050 WS018/21045KT
     FM021300 21018G28KT 4SM -SHRA VCTS BKN020 OVC040CB
      TEMPO 0216/0220 3SM SHRA OVC012
     FM030000 33012KT P6SM SKC=

USA.gov is the U.S. government's official web portal to all federal, state and local government web resources and services.